CYTH

Thompson Municipal Airport

Airport
ICAO code
CYTH
Summary
ICAO Region
NAM
ICAO Territory
Location

Thompson, Manitoba,

Coordinates
55° 48' 8" N , 97° 51' 22" W
KCC
Airport BS
Non Avian Wildlife Hazards to Aircraft
Airport CFIT
Altimeter Temperature Error Correction
Airport GND
Aircraft Ground De/Anti Icing
Metar
Observation
CYTH 280500Z 09009G18KT 040V110 15SM OVC007 M08/M09 A2981 RMK SC8 SLP116
Station
Thompson Weather Office, Man
Date/Time
2022-11-28 05:00:00
Wind direction
90°
Wind speed
09 kts
Lowest cloud amount
overcast
Temperature
-8°C
Dew point
-9°C
Humidity
92%
Weather condition
n/a

Description

Regional airport serving Thompson, Manitoba, Canada.

Climatology

Subarctic climate (Köppen climate classification Dfc) - long, usually very cold winters, and short, cool to mild summers.

Runways

Designator Length Width Surface Rops
14/32 762 30 GVL No/No
5/23 1768 46 ASP No/No

Airport map

Aerial View

Airport accidents

SKYbrary Partners:

Safety knowledge contributed by: